Time;durP1;ratioP1;P1;durP2;ratioP2;P2;SDS_P1;SDS_P2;PMS_P1;PMS_P2;Temp;Humidity;BMP_temperature;BMP_pressure;BME280_temperature;BME280_humidity;BME280_pressure;Samples;Min_cycle;Max_cycle;Signal;HPM_P1;HPM_P2
2023/09/15 00:01:30;;;;;;;0.45;0.45;;;22.80;70.10;;;;;;4967225;28;20145;-81
2023/09/15 00:03:55;;;;;;;0.50;0.50;;;22.80;69.80;;;;;;4966795;28;20194;-81
2023/09/15 00:06:21;;;;;;;0.50;0.50;;;22.80;70.20;;;;;;4959715;28;20031;-82
2023/09/15 00:08:47;;;;;;;0.60;0.60;;;22.80;70.40;;;;;;4962401;28;20030;-81
2023/09/15 00:11:16;;;;;;;0.52;0.52;;;22.80;70.50;;;;;;4960560;28;20082;-81
2023/09/15 00:13:41;;;;;;;0.50;0.50;;;22.70;70.60;;;;;;4967310;28;20031;-81
2023/09/15 00:16:07;;;;;;;0.65;0.65;;;22.70;70.50;;;;;;4966824;28;20026;-81
2023/09/15 00:18:33;;;;;;;0.50;0.50;;;22.80;70.40;;;;;;4963814;28;20047;-79
2023/09/15 00:20:59;;;;;;;0.50;0.50;;;22.70;70.30;;;;;;4966732;28;20130;-81
2023/09/15 00:23:24;;;;;;;0.50;0.50;;;22.70;70.20;;;;;;4965233;28;20047;-82
2023/09/15 00:25:54;;;;;;;0.50;0.50;;;22.70;70.30;;;;;;4966108;28;20116;-82
2023/09/15 00:28:20;;;;;;;0.55;0.55;;;22.70;71.00;;;;;;4961922;28;20493;-81
2023/09/15 00:30:45;;;;;;;0.60;0.60;;;22.70;70.30;;;;;;4965087;28;20046;-81
2023/09/15 00:33:11;;;;;;;0.50;0.50;;;22.70;70.20;;;;;;4964428;28;20111;-82
2023/09/15 00:35:36;;;;;;;0.60;0.60;;;22.70;70.40;;;;;;4964857;28;20062;-81
2023/09/15 00:38:03;;;;;;;0.60;0.60;;;22.80;70.20;;;;;;4966502;28;20042;-82
2023/09/15 00:40:28;;;;;;;0.40;0.40;;;22.70;70.20;;;;;;4966255;28;20045;-81
2023/09/15 00:42:54;;;;;;;0.57;0.57;;;22.70;70.10;;;;;;4964791;28;20034;-82
2023/09/15 00:45:20;;;;;;;0.45;0.45;;;22.70;70.20;;;;;;4965771;28;20038;-81
2023/09/15 00:47:49;;;;;;;0.40;0.40;;;22.70;70.10;;;;;;4966547;28;20042;-81
2023/09/15 00:50:17;;;;;;;0.40;0.40;;;22.70;70.20;;;;;;4963286;28;20053;-82
2023/09/15 00:52:57;;;;;;;0.40;0.40;;;22.70;70.00;;;;;;4966874;28;20053;-81
2023/09/15 00:55:24;;;;;;;0.43;0.43;;;22.70;70.10;;;;;;4964427;28;20079;-82
2023/09/15 00:57:50;;;;;;;0.40;0.40;;;22.70;70.10;;;;;;4964509;28;20126;-81
2023/09/15 01:00:17;;;;;;;0.50;0.50;;;22.70;70.30;;;;;;4963978;28;20528;-81
2023/09/15 01:02:43;;;;;;;0.40;0.40;;;22.70;70.10;;;;;;4967397;28;20524;-81
2023/09/15 01:05:19;;;;;;;0.40;0.40;;;22.70;70.10;;;;;;4970080;28;20052;-81
2023/09/15 01:07:52;;;;;;;0.57;0.47;;;22.70;69.90;;;;;;4970188;28;20070;-81
2023/09/15 01:10:19;;;;;;;0.50;0.50;;;22.70;70.80;;;;;;4968506;28;20408;-82
2023/09/15 01:12:45;;;;;;;0.40;0.40;;;22.70;70.00;;;;;;4970663;28;20034;-81
2023/09/15 01:15:10;;;;;;;0.50;0.50;;;22.70;70.10;;;;;;4967692;28;20273;-81
2023/09/15 01:17:43;;;;;;;0.40;0.40;;;22.70;70.20;;;;;;4966937;28;20583;-81
2023/09/15 01:20:10;;;;;;;0.60;0.60;;;22.70;70.20;;;;;;4967171;28;20061;-82
2023/09/15 01:23:04;;;;;;;0.65;0.50;;;22.70;70.20;;;;;;4969190;28;20108;-82
2023/09/15 01:25:52;;;;;;;0.50;0.50;;;22.70;70.50;;;;;;4968017;28;20610;-81
2023/09/15 01:28:30;;;;;;;0.85;0.45;;;22.70;70.70;;;;;;4966519;28;20420;-81
2023/09/15 01:30:56;;;;;;;1.38;0.60;;;22.60;70.90;;;;;;4967239;28;20035;-81
2023/09/15 01:33:21;;;;;;;0.40;0.40;;;22.60;70.60;;;;;;4966304;28;20098;-82
2023/09/15 01:35:47;;;;;;;0.40;0.40;;;22.70;70.50;;;;;;4967046;28;20031;-81
2023/09/15 01:38:12;;;;;;;0.57;0.50;;;22.60;70.50;;;;;;4970084;28;20548;-81
2023/09/15 01:40:38;;;;;;;0.80;0.50;;;22.60;70.70;;;;;;4969036;28;20464;-80
2023/09/15 01:43:04;;;;;;;0.45;0.45;;;22.60;70.70;;;;;;4968436;28;20046;-81
2023/09/15 01:45:30;;;;;;;0.50;0.50;;;22.60;70.70;;;;;;4968929;28;20069;-82
2023/09/15 01:47:55;;;;;;;0.50;0.50;;;22.70;70.80;;;;;;4964636;28;20062;-81
2023/09/15 01:50:21;;;;;;;0.57;0.57;;;22.60;70.70;;;;;;4967811;28;20058;-81
2023/09/15 01:52:46;;;;;;;1.02;0.80;;;22.60;70.80;;;;;;4970030;28;20054;-81
2023/09/15 01:55:12;;;;;;;0.60;0.60;;;22.60;70.80;;;;;;4965944;28;20046;-81
2023/09/15 01:57:37;;;;;;;0.60;0.60;;;22.60;71.40;;;;;;4968234;28;20489;-81
2023/09/15 02:00:04;;;;;;;0.40;0.40;;;22.70;70.60;;;;;;4964968;28;20416;-81
2023/09/15 02:02:30;;;;;;;0.52;0.52;;;22.60;70.60;;;;;;4968907;28;20062;-82
2023/09/15 02:04:55;;;;;;;3.90;0.60;;;22.60;70.60;;;;;;4968079;28;20514;-81
2023/09/15 02:07:21;;;;;;;0.40;0.40;;;22.60;70.60;;;;;;4968820;28;20043;-81
2023/09/15 02:09:46;;;;;;;0.40;0.40;;;22.60;70.90;;;;;;4969548;28;20137;-81
2023/09/15 02:12:12;;;;;;;0.45;0.45;;;22.60;70.90;;;;;;4969634;28;20051;-82
2023/09/15 02:14:37;;;;;;;1.10;0.80;;;22.60;70.90;;;;;;4968288;28;20137;-81
2023/09/15 02:17:04;;;;;;;0.50;0.50;;;22.60;71.10;;;;;;4968486;28;20061;-81
2023/09/15 02:19:30;;;;;;;0.40;0.40;;;22.60;71.30;;;;;;4968618;28;20054;-82
2023/09/15 02:21:57;;;;;;;0.52;0.50;;;22.60;70.90;;;;;;4967708;28;20039;-81
2023/09/15 02:24:22;;;;;;;0.50;0.50;;;22.60;70.90;;;;;;4958681;28;20054;-81
2023/09/15 02:26:48;;;;;;;0.40;0.40;;;22.60;70.90;;;;;;4966349;28;20485;-81
2023/09/15 02:29:14;;;;;;;0.30;0.30;;;22.60;70.90;;;;;;4970239;28;20046;-81
2023/09/15 02:31:40;;;;;;;1.92;0.40;;;22.60;70.90;;;;;;4967565;28;20042;-82
2023/09/15 02:34:06;;;;;;;0.30;0.30;;;22.60;71.00;;;;;;4963561;28;20052;-81
2023/09/15 02:36:31;;;;;;;0.63;0.47;;;22.60;71.10;;;;;;4968330;28;20121;-81
2023/09/15 02:38:57;;;;;;;0.40;0.40;;;22.60;71.00;;;;;;4967989;28;20047;-82
2023/09/15 02:41:23;;;;;;;0.47;0.47;;;22.60;70.90;;;;;;4967641;28;20034;-81
2023/09/15 02:43:48;;;;;;;0.45;0.45;;;22.60;70.90;;;;;;4966683;28;20069;-81
2023/09/15 02:46:14;;;;;;;0.35;0.35;;;22.60;70.90;;;;;;4968265;28;20047;-81
2023/09/15 02:48:41;;;;;;;0.30;0.30;;;22.60;70.90;;;;;;4967254;28;20098;-82
2023/09/15 02:51:07;;;;;;;0.40;0.40;;;22.60;70.80;;;;;;4968532;28;20074;-81
2023/09/15 02:53:32;;;;;;;0.52;0.52;;;22.60;70.80;;;;;;4969278;28;20073;-81
2023/09/15 02:55:59;;;;;;;0.38;0.38;;;22.50;70.80;;;;;;4967603;28;20093;-81
2023/09/15 02:58:26;;;;;;;0.30;0.30;;;22.60;70.90;;;;;;4968062;28;20050;-81
2023/09/15 03:00:51;;;;;;;0.40;0.40;;;22.60;70.90;;;;;;4965453;28;20629;-81
2023/09/15 03:03:17;;;;;;;0.50;0.50;;;22.60;70.90;;;;;;4966845;28;20417;-81
2023/09/15 03:05:43;;;;;;;0.60;0.60;;;22.50;70.80;;;;;;4967826;28;20042;-81
2023/09/15 03:08:09;;;;;;;0.22;0.22;;;22.50;70.90;;;;;;4965136;28;20478;-81
2023/09/15 03:10:34;;;;;;;0.30;0.30;;;22.50;70.70;;;;;;4967607;28;20051;-82
2023/09/15 03:13:02;;;;;;;0.30;0.30;;;22.60;70.80;;;;;;4967051;28;20039;-81
2023/09/15 03:15:28;;;;;;;0.30;0.30;;;22.50;70.90;;;;;;4967724;28;20413;-82
2023/09/15 03:17:53;;;;;;;0.35;0.35;;;22.60;71.00;;;;;;4964670;28;20043;-81
2023/09/15 03:20:20;;;;;;;0.35;0.35;;;22.60;70.90;;;;;;4968038;28;20473;-81
2023/09/15 03:22:46;;;;;;;0.40;0.40;;;22.60;70.90;;;;;;4966655;28;20066;-81
2023/09/15 03:25:14;;;;;;;0.40;0.40;;;22.50;71.00;;;;;;4966693;28;20070;-81
2023/09/15 03:27:39;;;;;;;0.35;0.35;;;22.50;71.00;;;;;;4966199;28;20055;-81
2023/09/15 03:30:06;;;;;;;0.40;0.40;;;22.50;70.90;;;;;;4965265;28;20445;-81
2023/09/15 03:32:32;;;;;;;0.30;0.30;;;22.60;70.90;;;;;;4964057;28;20051;-81
2023/09/15 03:34:57;;;;;;;0.30;0.30;;;22.50;70.80;;;;;;4963691;28;20117;-81
2023/09/15 03:37:23;;;;;;;0.30;0.30;;;22.50;70.80;;;;;;4966323;28;20523;-81
2023/09/15 03:39:49;;;;;;;0.40;0.40;;;22.50;70.80;;;;;;4966792;28;20051;-81
2023/09/15 03:42:15;;;;;;;0.30;0.30;;;22.50;70.80;;;;;;4965163;28;20047;-81
2023/09/15 03:44:40;;;;;;;0.40;0.40;;;22.50;70.80;;;;;;4966948;28;20070;-81
2023/09/15 03:47:06;;;;;;;2.28;0.50;;;22.50;70.90;;;;;;4966073;28;20074;-81
2023/09/15 03:49:33;;;;;;;0.50;0.40;;;22.50;70.70;;;;;;4964532;28;20035;-81
2023/09/15 03:51:59;;;;;;;0.40;0.40;;;22.50;70.80;;;;;;4963372;28;20761;-81
2023/09/15 03:54:25;;;;;;;0.40;0.40;;;22.50;70.90;;;;;;4966313;28;20027;-82
2023/09/15 03:56:51;;;;;;;0.35;0.35;;;22.50;70.90;;;;;;4964942;28;20035;-81
2023/09/15 03:59:16;;;;;;;0.22;0.22;;;22.50;70.80;;;;;;4968013;28;20031;-82
2023/09/15 04:01:42;;;;;;;0.30;0.30;;;22.50;70.80;;;;;;4964271;28;20051;-81
2023/09/15 04:04:08;;;;;;;0.50;0.50;;;22.50;70.80;;;;;;4965832;28;20043;-82
2023/09/15 04:06:35;;;;;;;0.40;0.40;;;22.50;70.80;;;;;;4965785;28;20041;-81
2023/09/15 04:09:05;;;;;;;0.40;0.40;;;22.50;70.80;;;;;;4966260;28;20109;-81
2023/09/15 04:11:32;;;;;;;0.30;0.30;;;22.50;70.80;;;;;;4965943;28;20062;-81
2023/09/15 04:13:57;;;;;;;0.40;0.40;;;22.50;70.80;;;;;;4966181;28;20045;-81
2023/09/15 04:16:23;;;;;;;0.45;0.45;;;22.50;70.80;;;;;;4965754;28;20401;-82
2023/09/15 04:18:48;;;;;;;0.40;0.40;;;22.50;70.70;;;;;;4966106;28;20496;-80
2023/09/15 04:21:14;;;;;;;0.40;0.40;;;22.50;70.90;;;;;;4965812;28;20046;-81
2023/09/15 04:23:39;;;;;;;0.40;0.40;;;22.50;70.80;;;;;;4967402;28;20113;-81
2023/09/15 04:26:05;;;;;;;0.30;0.30;;;22.50;70.80;;;;;;4965079;28;20424;-81
2023/09/15 04:28:30;;;;;;;0.50;0.50;;;22.50;70.70;;;;;;4966626;28;20058;-81
2023/09/15 04:30:56;;;;;;;0.40;0.40;;;22.50;70.80;;;;;;4965707;28;20043;-81
2023/09/15 04:33:23;;;;;;;0.47;0.47;;;22.50;70.70;;;;;;4964766;28;20579;-82
2023/09/15 04:35:49;;;;;;;0.40;0.40;;;22.50;70.70;;;;;;4964665;28;20035;-82
2023/09/15 04:38:14;;;;;;;0.50;0.50;;;22.50;70.60;;;;;;4971509;28;20058;-81
2023/09/15 04:40:40;;;;;;;0.25;0.25;;;22.50;70.60;;;;;;4970887;28;20058;-81
2023/09/15 04:43:05;;;;;;;0.40;0.40;;;22.50;70.80;;;;;;4970119;28;20057;-82
2023/09/15 04:45:31;;;;;;;0.52;0.52;;;22.50;70.70;;;;;;4970109;28;20122;-81
2023/09/15 04:47:56;;;;;;;0.50;0.40;;;22.50;70.70;;;;;;4969510;28;20049;-81
2023/09/15 04:50:22;;;;;;;0.30;0.30;;;22.50;70.60;;;;;;4969267;28;20062;-81
2023/09/15 04:52:48;;;;;;;0.35;0.35;;;22.50;70.60;;;;;;4971129;28;20520;-81
2023/09/15 04:55:13;;;;;;;0.35;0.35;;;22.50;70.60;;;;;;4969470;28;20441;-81
2023/09/15 04:57:39;;;;;;;0.40;0.40;;;22.50;70.60;;;;;;4968390;28;20089;-81
2023/09/15 05:00:11;;;;;;;0.32;0.32;;;22.50;70.60;;;;;;4968814;28;20042;-81
2023/09/15 05:02:37;;;;;;;0.35;0.35;;;22.40;70.70;;;;;;4970450;28;20138;-81
2023/09/15 05:05:03;;;;;;;0.38;0.38;;;22.50;71.50;;;;;;4970682;28;20125;-81
2023/09/15 05:07:28;;;;;;;0.30;0.30;;;22.50;70.60;;;;;;4969260;28;20047;-81
2023/09/15 05:09:54;;;;;;;0.20;0.20;;;22.50;70.60;;;;;;4967530;28;20042;-81
2023/09/15 05:12:19;;;;;;;0.30;0.30;;;22.40;71.40;;;;;;4968455;28;20535;-81
2023/09/15 05:14:45;;;;;;;0.47;0.47;;;22.40;71.40;;;;;;4967872;28;22369;-81
2023/09/15 05:17:10;;;;;;;2.22;0.47;;;22.40;70.70;;;;;;4966416;28;20046;-82
2023/09/15 05:19:37;;;;;;;0.60;0.60;;;22.40;70.60;;;;;;4967123;28;20054;-83
2023/09/15 05:22:03;;;;;;;0.20;0.20;;;22.50;70.60;;;;;;4618169;28;10000992;-83
2023/09/15 05:24:28;;;;;;;0.40;0.40;;;22.50;70.80;;;;;;4963225;28;20046;-84
2023/09/15 05:26:54;;;;;;;0.40;0.40;;;22.50;70.80;;;;;;4961006;28;20043;-82
2023/09/15 05:29:20;;;;;;;0.30;0.30;;;22.50;70.80;;;;;;4964255;28;20065;-82
2023/09/15 05:31:45;;;;;;;0.40;0.40;;;22.50;70.70;;;;;;4963634;28;20138;-82
2023/09/15 05:34:11;;;;;;;0.30;0.30;;;22.50;70.70;;;;;;4959717;28;20058;-82
2023/09/15 05:36:36;;;;;;;0.45;0.45;;;22.50;70.70;;;;;;4965664;28;20039;-81
2023/09/15 05:39:02;;;;;;;0.38;0.38;;;22.50;70.80;;;;;;4964563;28;20055;-81
2023/09/15 05:41:28;;;;;;;0.45;0.45;;;22.50;70.80;;;;;;4957802;28;20051;-85
2023/09/15 05:43:53;;;;;;;0.57;0.38;;;22.50;70.70;;;;;;4965543;28;20043;-84
2023/09/15 05:46:19;;;;;;;0.30;0.30;;;22.50;71.50;;;;;;4962187;28;20438;-81
2023/09/15 05:48:45;;;;;;;0.30;0.30;;;22.50;70.80;;;;;;4961037;28;20705;-81
2023/09/15 05:51:10;;;;;;;0.30;0.30;;;22.50;70.70;;;;;;4963305;28;20043;-76
2023/09/15 05:53:36;;;;;;;0.50;0.50;;;22.50;70.60;;;;;;4965426;28;20057;-75
2023/09/15 05:56:02;;;;;;;1.20;0.98;;;22.50;70.20;;;;;;4962044;28;20065;-75
2023/09/15 05:58:27;;;;;;;0.75;0.75;;;22.50;65.50;;;;;;4963868;28;20045;-75
2023/09/15 06:00:55;;;;;;;0.80;0.80;;;22.30;64.60;;;;;;4965760;28;20077;-80
2023/09/15 06:03:24;;;;;;;1.45;1.35;;;22.20;64.20;;;;;;4965550;28;20503;-76
2023/09/15 06:05:50;;;;;;;1.88;1.40;;;22.00;64.40;;;;;;4963143;28;20042;-76
2023/09/15 06:08:18;;;;;;;1.20;1.10;;;22.00;64.00;;;;;;4961445;28;20073;-76
2023/09/15 06:10:43;;;;;;;2.10;1.10;;;22.00;63.60;;;;;;4965355;28;20038;-76
2023/09/15 06:13:09;;;;;;;2.97;1.23;;;22.00;63.60;;;;;;4964084;28;20054;-76
2023/09/15 06:15:34;;;;;;;2.58;1.33;;;21.90;63.00;;;;;;4966013;28;20126;-76
2023/09/15 06:18:01;;;;;;;1.90;1.80;;;21.60;62.00;;;;;;4963659;28;20521;-76
2023/09/15 06:20:30;;;;;;;1.92;1.83;;;21.30;63.20;;;;;;4961829;28;20418;-75
2023/09/15 06:22:56;;;;;;;1.77;1.67;;;21.00;63.60;;;;;;4964335;28;20039;-76
2023/09/15 06:25:21;;;;;;;1.60;1.50;;;20.50;65.10;;;;;;4962601;28;20374;-76
2023/09/15 06:27:47;;;;;;;1.70;1.42;;;20.10;66.60;;;;;;4959061;28;20055;-76
2023/09/15 06:30:13;;;;;;;2.20;1.35;;;20.20;66.50;;;;;;4964896;28;20043;-77
2023/09/15 06:32:38;;;;;;;1.60;1.50;;;20.30;66.40;;;;;;4962574;28;20114;-79
2023/09/15 06:35:05;;;;;;;1.85;1.75;;;20.30;65.90;;;;;;4966544;28;20042;-78
2023/09/15 06:37:31;;;;;;;2.05;1.65;;;20.10;67.10;;;;;;4963529;28;20042;-76
2023/09/15 06:39:56;;;;;;;2.03;1.92;;;20.20;67.10;;;;;;4960230;28;20314;-76
2023/09/15 06:42:22;;;;;;;2.15;1.42;;;20.30;66.60;;;;;;4973771;28;20112;-76
2023/09/15 06:44:47;;;;;;;1.80;1.70;;;20.30;66.70;;;;;;4961583;28;20039;-75
2023/09/15 06:47:13;;;;;;;3.03;1.48;;;20.20;66.90;;;;;;4965821;28;20483;-76
2023/09/15 06:49:39;;;;;;;2.80;1.70;;;20.20;67.10;;;;;;4964366;28;20074;-75
2023/09/15 06:52:06;;;;;;;1.70;1.60;;;20.20;67.10;;;;;;4962810;28;20047;-75
2023/09/15 06:54:31;;;;;;;3.17;2.05;;;20.20;67.10;;;;;;4962105;28;20054;-75
2023/09/15 06:56:57;;;;;;;3.80;1.90;;;20.20;67.30;;;;;;4961327;28;20129;-76
2023/09/15 06:59:22;;;;;;;1.80;1.70;;;20.10;67.80;;;;;;4961203;28;20050;-76
2023/09/15 07:01:48;;;;;;;2.75;1.48;;;20.10;67.80;;;;;;4962929;28;20145;-76
2023/09/15 07:04:13;;;;;;;1.92;1.70;;;20.00;68.10;;;;;;4958161;28;20058;-76
2023/09/15 07:06:42;;;;;;;2.33;1.95;;;20.10;68.20;;;;;;4964823;28;20047;-75
2023/09/15 07:09:07;;;;;;;2.33;1.77;;;20.10;68.40;;;;;;4958716;28;20113;-75
2023/09/15 07:11:33;;;;;;;2.17;1.70;;;20.10;68.40;;;;;;4960088;28;20504;-77
2023/09/15 07:13:58;;;;;;;4.10;1.40;;;20.20;68.00;;;;;;4965307;28;20042;-77
2023/09/15 07:16:24;;;;;;;2.75;1.70;;;20.20;68.30;;;;;;4963589;28;20130;-75
2023/09/15 07:18:50;;;;;;;1.60;1.50;;;20.40;67.50;;;;;;4977822;28;20035;-77
2023/09/15 07:21:15;;;;;;;1.92;1.48;;;20.60;66.80;;;;;;4957143;28;20544;-76
2023/09/15 07:23:41;;;;;;;1.60;1.40;;;20.70;66.80;;;;;;4980817;28;20046;-77
2023/09/15 07:26:06;;;;;;;1.67;1.40;;;20.80;66.50;;;;;;4968211;28;20096;-76
2023/09/15 07:28:32;;;;;;;2.55;1.52;;;20.80;66.30;;;;;;4966861;28;20508;-77
2023/09/15 07:31:04;;;;;;;1.65;1.52;;;20.90;67.20;;;;;;4965888;28;20113;-77
2023/09/15 07:33:30;;;;;;;2.13;1.50;;;20.90;66.10;;;;;;4963976;28;20046;-77
2023/09/15 07:35:59;;;;;;;3.33;1.73;;;20.80;66.30;;;;;;4966901;28;20413;-77
2023/09/15 07:38:25;;;;;;;1.52;1.42;;;20.80;66.60;;;;;;4963858;28;20065;-76
2023/09/15 07:40:51;;;;;;;1.48;1.38;;;20.90;66.80;;;;;;4963192;28;20386;-77
2023/09/15 07:43:16;;;;;;;3.45;1.70;;;20.80;66.70;;;;;;4962714;28;20058;-77
2023/09/15 07:45:42;;;;;;;1.70;1.60;;;20.90;67.00;;;;;;4960298;28;20042;-76
2023/09/15 07:48:07;;;;;;;1.90;1.50;;;20.80;67.20;;;;;;4963617;28;20080;-76
2023/09/15 07:50:33;;;;;;;1.83;1.48;;;20.80;67.10;;;;;;4963727;28;20039;-76
2023/09/15 07:52:59;;;;;;;1.52;1.42;;;20.80;68.30;;;;;;4968309;28;20038;-77
2023/09/15 07:55:25;;;;;;;1.48;1.38;;;21.00;67.20;;;;;;4966984;28;20038;-76
2023/09/15 07:57:50;;;;;;;4.10;1.52;;;21.00;67.10;;;;;;4964866;28;20413;-76
2023/09/15 08:00:16;;;;;;;1.67;1.50;;;21.10;67.00;;;;;;4966866;28;20035;-76
2023/09/15 08:02:42;;;;;;;1.77;1.40;;;21.00;67.10;;;;;;4966030;28;20051;-76
2023/09/15 08:05:08;;;;;;;1.30;1.20;;;21.10;67.40;;;;;;4968867;28;20117;-76
2023/09/15 08:07:33;;;;;;;1.60;1.50;;;21.00;67.40;;;;;;4966263;28;20043;-76
2023/09/15 08:10:00;;;;;;;2.95;1.50;;;21.00;67.70;;;;;;4962356;28;20043;-77
2023/09/15 08:12:26;;;;;;;2.17;1.42;;;21.00;67.80;;;;;;4962572;28;20047;-77
2023/09/15 08:14:52;;;;;;;3.47;1.48;;;21.10;67.70;;;;;;4962493;28;20042;-77
2023/09/15 08:17:18;;;;;;;1.40;1.30;;;21.10;68.10;;;;;;4961781;28;20428;-78
2023/09/15 08:19:43;;;;;;;1.50;1.30;;;21.10;68.20;;;;;;4977239;28;20037;-77
2023/09/15 08:22:09;;;;;;;2.15;1.50;;;21.10;68.00;;;;;;4961717;28;20038;-76
2023/09/15 08:24:35;;;;;;;1.60;1.50;;;21.10;68.20;;;;;;4961396;28;20627;-77
2023/09/15 08:27:00;;;;;;;1.40;1.27;;;21.10;68.20;;;;;;4960827;28;20058;-76
2023/09/15 08:29:26;;;;;;;1.27;1.15;;;21.20;68.20;;;;;;4964698;28;20054;-76
2023/09/15 08:31:51;;;;;;;4.65;1.40;;;21.20;67.90;;;;;;4962878;28;20039;-76
2023/09/15 08:34:17;;;;;;;2.05;1.50;;;21.30;67.90;;;;;;4963030;28;20461;-76
2023/09/15 08:36:43;;;;;;;1.30;1.20;;;21.30;68.10;;;;;;4964642;28;20062;-76
2023/09/15 08:39:09;;;;;;;2.15;1.30;;;21.40;68.00;;;;;;4964845;28;20034;-76
2023/09/15 08:41:39;;;;;;;1.30;1.20;;;21.40;67.90;;;;;;4965104;28;20047;-76
2023/09/15 08:44:09;;;;;;;1.45;1.30;;;21.40;68.10;;;;;;4964337;28;20050;-76
2023/09/15 08:46:35;;;;;;;1.58;1.10;;;21.40;68.00;;;;;;4962153;28;20031;-76
2023/09/15 08:49:01;;;;;;;1.58;1.38;;;21.40;68.00;;;;;;4942436;28;20144;-76
2023/09/15 08:51:27;;;;;;;1.27;1.17;;;21.50;67.80;;;;;;4964131;28;20117;-76
2023/09/15 08:53:56;;;;;;;1.60;1.50;;;21.60;67.70;;;;;;4985132;28;20413;-76
2023/09/15 08:56:22;;;;;;;1.02;1.02;;;21.50;68.40;;;;;;4954983;28;20109;-76
2023/09/15 08:58:48;;;;;;;1.52;1.20;;;21.60;67.60;;;;;;4961953;28;20039;-75
2023/09/15 09:01:13;;;;;;;1.20;1.13;;;21.60;67.80;;;;;;4973057;28;20039;-76
2023/09/15 09:03:39;;;;;;;0.93;0.93;;;21.60;67.70;;;;;;4957635;28;20046;-76
2023/09/15 09:06:09;;;;;;;1.45;0.98;;;21.70;67.70;;;;;;4959529;28;20171;-77
2023/09/15 09:08:35;;;;;;;1.50;1.40;;;21.80;67.40;;;;;;4959991;28;20034;-76
2023/09/15 09:11:01;;;;;;;1.67;1.30;;;21.80;67.30;;;;;;4960330;28;20118;-76
2023/09/15 09:13:26;;;;;;;1.75;1.65;;;21.80;67.40;;;;;;4963293;28;20132;-76
2023/09/15 09:15:52;;;;;;;1.25;1.15;;;21.80;67.30;;;;;;4947151;28;20046;-76
2023/09/15 09:18:18;;;;;;;1.30;1.20;;;21.90;67.30;;;;;;4958460;28;20042;-76
2023/09/15 09:20:44;;;;;;;1.10;1.10;;;21.90;67.10;;;;;;4961094;28;20042;-76
2023/09/15 09:23:10;;;;;;;2.45;1.38;;;21.90;67.30;;;;;;4957851;28;20106;-76
2023/09/15 09:25:36;;;;;;;1.48;1.38;;;22.00;67.20;;;;;;4965610;28;20047;-77
2023/09/15 09:28:03;;;;;;;1.38;1.15;;;22.00;67.10;;;;;;4969448;28;20045;-77
2023/09/15 09:30:31;;;;;;;1.00;1.00;;;22.10;67.50;;;;;;4969221;28;20054;-77
2023/09/15 09:32:57;;;;;;;1.95;1.40;;;22.10;67.50;;;;;;4960536;28;20061;-77
2023/09/15 09:35:23;;;;;;;1.50;1.40;;;22.10;67.40;;;;;;4970390;28;20054;-77
2023/09/15 09:37:49;;;;;;;1.58;1.48;;;22.10;67.50;;;;;;4970548;28;20133;-77
2023/09/15 09:40:17;;;;;;;1.20;1.20;;;22.10;67.50;;;;;;4968907;28;20126;-77
2023/09/15 09:42:43;;;;;;;1.13;1.10;;;22.20;67.60;;;;;;4968988;28;20871;-77
2023/09/15 09:45:10;;;;;;;1.08;0.98;;;22.10;68.30;;;;;;4967978;28;20138;-76
2023/09/15 09:47:35;;;;;;;1.15;1.05;;;22.20;67.40;;;;;;4963510;28;20105;-77
2023/09/15 09:50:09;;;;;;;2.28;1.00;;;22.20;68.20;;;;;;4967704;28;20409;-79
2023/09/15 09:52:35;;;;;;;1.60;1.50;;;22.20;67.30;;;;;;4967632;28;20045;-78
2023/09/15 09:55:03;;;;;;;1.00;1.00;;;22.30;67.50;;;;;;4967014;28;20583;-78
2023/09/15 09:57:29;;;;;;;1.10;1.00;;;22.30;67.30;;;;;;4967615;28;20040;-76
2023/09/15 09:59:54;;;;;;;1.40;1.08;;;22.30;67.20;;;;;;4969453;28;20464;-77
2023/09/15 10:02:20;;;;;;;0.88;0.88;;;22.30;67.30;;;;;;4967482;28;20055;-76
2023/09/15 10:04:45;;;;;;;0.90;0.90;;;22.30;67.40;;;;;;4969184;28;20058;-77
2023/09/15 10:07:11;;;;;;;1.20;1.20;;;22.40;67.40;;;;;;4967942;28;20054;-76
2023/09/15 10:09:37;;;;;;;1.05;1.05;;;22.40;67.50;;;;;;4968037;28;20050;-77
2023/09/15 10:12:03;;;;;;;1.63;1.25;;;22.40;67.50;;;;;;4970589;28;20042;-76
2023/09/15 10:14:28;;;;;;;1.30;1.20;;;22.40;67.40;;;;;;4962230;28;20500;-76
2023/09/15 10:16:54;;;;;;;1.00;1.00;;;22.40;67.40;;;;;;4951906;28;20042;-76
2023/09/15 10:19:20;;;;;;;1.08;0.98;;;22.40;67.30;;;;;;4965249;28;20430;-76
2023/09/15 10:21:45;;;;;;;1.05;1.05;;;22.40;67.30;;;;;;4966774;28;20057;-76
2023/09/15 10:24:12;;;;;;;1.20;1.15;;;22.50;67.40;;;;;;4968407;28;20038;-76
2023/09/15 10:26:44;;;;;;;1.27;1.10;;;22.50;67.30;;;;;;4965084;28;20070;-76
2023/09/15 10:29:15;;;;;;;0.90;0.90;;;22.50;67.30;;;;;;4968401;28;20118;-78
2023/09/15 10:31:52;;;;;;;0.98;0.98;;;22.50;67.40;;;;;;4967243;28;20063;-76
2023/09/15 10:34:17;;;;;;;2.25;1.00;;;22.50;67.80;;;;;;4965633;28;20051;-77
2023/09/15 10:36:43;;;;;;;1.10;1.10;;;22.50;67.90;;;;;;4966373;28;20050;-76
2023/09/15 10:39:13;;;;;;;0.68;0.68;;;22.50;67.80;;;;;;4966774;28;20050;-75
2023/09/15 10:41:38;;;;;;;1.20;1.15;;;22.60;67.70;;;;;;4965034;28;20053;-76
2023/09/15 10:44:04;;;;;;;54.00;4.88;;;22.60;67.80;;;;;;4968357;28;20042;-82
2023/09/15 10:46:37;;;;;;;35.03;7.22;;;22.60;68.30;;;;;;4964342;28;20050;-81
2023/09/15 10:49:18;;;;;;;24.00;4.57;;;22.70;67.00;;;;;;4969043;28;20054;-80
2023/09/15 10:51:57;;;;;;;30.90;5.35;;;22.90;66.80;;;;;;4965799;28;20031;-84
2023/09/15 10:54:29;;;;;;;15.93;5.18;;;23.00;66.40;;;;;;4960941;28;20062;-76
2023/09/15 10:56:55;;;;;;;15.20;3.17;;;23.20;66.10;;;;;;4962191;28;20050;-76
2023/09/15 10:59:20;;;;;;;10.57;2.55;;;23.20;65.70;;;;;;4966608;28;20027;-77
2023/09/15 11:01:46;;;;;;;3.33;2.10;;;23.10;66.10;;;;;;4966453;28;20126;-76
2023/09/15 11:04:13;;;;;;;5.40;2.75;;;23.20;65.40;;;;;;4619410;28;10000293;-77
2023/09/15 11:06:39;;;;;;;3.15;2.17;;;23.10;65.90;;;;;;4960840;28;20104;-77
2023/09/15 11:09:05;;;;;;;6.80;2.25;;;23.00;66.30;;;;;;4963358;28;20125;-77
2023/09/15 11:11:31;;;;;;;5.18;1.88;;;23.00;66.50;;;;;;4958220;28;20136;-78
2023/09/15 11:13:57;;;;;;;6.22;2.38;;;23.00;66.60;;;;;;4963811;28;20097;-77
2023/09/15 11:16:24;;;;;;;6.13;2.25;;;23.00;66.80;;;;;;4957112;28;20055;-77
2023/09/15 11:18:50;;;;;;;4.43;2.38;;;23.00;66.80;;;;;;4958484;28;20042;-77
2023/09/15 11:21:15;;;;;;;2.45;2.22;;;23.00;67.00;;;;;;4961605;28;20042;-76
2023/09/15 11:23:46;;;;;;;2.55;1.70;;;23.00;67.00;;;;;;4960898;28;20089;-77
2023/09/15 11:26:11;;;;;;;2.92;2.13;;;23.00;67.10;;;;;;4973018;28;20034;-77
2023/09/15 11:28:37;;;;;;;4.38;2.28;;;23.00;67.10;;;;;;4956596;28;20673;-77
2023/09/15 11:31:06;;;;;;;3.38;2.00;;;23.00;67.30;;;;;;4961151;28;20034;-77
2023/09/15 11:33:32;;;;;;;3.17;1.75;;;23.00;67.40;;;;;;4962202;28;20038;-77
2023/09/15 11:35:58;;;;;;;5.38;2.05;;;23.00;67.50;;;;;;4962679;28;20065;-77
2023/09/15 11:38:24;;;;;;;5.18;1.60;;;23.00;67.50;;;;;;4962624;28;20139;-76
2023/09/15 11:40:50;;;;;;;3.22;1.95;;;23.00;67.50;;;;;;4959689;28;20031;-77
2023/09/15 11:43:17;;;;;;;4.72;2.00;;;23.00;67.40;;;;;;4959368;28;20077;-76
2023/09/15 11:45:42;;;;;;;4.05;1.83;;;23.00;67.40;;;;;;4961237;28;20212;-76
2023/09/15 11:48:09;;;;;;;1.80;1.70;;;23.10;67.50;;;;;;4975139;28;20589;-77
2023/09/15 11:50:35;;;;;;;3.67;1.67;;;23.00;67.50;;;;;;4919675;28;20053;-77
2023/09/15 11:53:00;;;;;;;3.28;1.80;;;23.00;67.50;;;;;;4962881;28;20043;-78
2023/09/15 11:55:26;;;;;;;2.60;1.50;;;23.00;67.50;;;;;;4952719;28;20047;-78
2023/09/15 11:57:52;;;;;;;2.90;1.77;;;23.00;67.50;;;;;;4954845;28;20073;-78
2023/09/15 12:00:21;;;;;;;1.88;1.60;;;23.00;67.50;;;;;;4957739;28;20050;-78
2023/09/15 12:02:47;;;;;;;4.53;2.05;;;23.00;67.40;;;;;;4960809;28;20058;-78
2023/09/15 12:05:16;;;;;;;2.33;1.60;;;23.10;67.40;;;;;;4944768;28;20081;-79
2023/09/15 12:07:45;;;;;;;2.28;1.60;;;23.00;67.30;;;;;;4945072;28;20045;-78
2023/09/15 12:10:14;;;;;;;2.30;2.10;;;23.00;67.40;;;;;;4980316;28;20047;-79
2023/09/15 12:12:40;;;;;;;2.10;1.90;;;23.10;67.40;;;;;;4957127;28;20039;-79
2023/09/15 12:15:06;;;;;;;2.28;1.67;;;23.10;67.60;;;;;;4958936;28;20033;-78
2023/09/15 12:17:33;;;;;;;2.80;1.50;;;23.10;67.50;;;;;;4959247;28;20509;-78
2023/09/15 12:20:05;;;;;;;3.05;1.73;;;23.10;67.40;;;;;;4959243;28;20042;-79
2023/09/15 12:22:37;;;;;;;2.45;1.73;;;23.10;67.40;;;;;;4959065;28;20452;-79
2023/09/15 12:25:02;;;;;;;2.00;1.80;;;23.10;67.50;;;;;;4960029;28;20189;-79
2023/09/15 12:27:28;;;;;;;2.25;1.50;;;23.10;67.50;;;;;;4961211;28;20564;-79
2023/09/15 12:29:56;;;;;;;1.52;1.42;;;23.10;67.50;;;;;;4961410;28;20743;-79
2023/09/15 12:32:30;;;;;;;2.17;1.38;;;23.10;67.50;;;;;;4961809;28;20480;-79
2023/09/15 12:34:56;;;;;;;1.67;1.40;;;23.10;67.50;;;;;;4965053;28;20050;-79
2023/09/15 12:37:22;;;;;;;3.45;1.60;;;23.10;67.40;;;;;;4958912;28;20043;-78
2023/09/15 12:39:47;;;;;;;1.70;1.60;;;23.10;67.50;;;;;;4959296;28;20133;-79
2023/09/15 12:42:13;;;;;;;1.60;1.40;;;23.10;67.50;;;;;;4960979;28;20218;-79